createdAt,value
2018-07-20T00:00:53.443Z,23.68
2018-07-20T00:03:21.949Z,23.66
2018-07-20T00:05:50.406Z,23.63
2018-07-20T00:08:18.984Z,23.57
2018-07-20T00:10:47.437Z,23.52
2018-07-20T00:13:15.999Z,23.51
2018-07-20T00:15:44.560Z,23.47
2018-07-20T00:18:13.159Z,23.47
2018-07-20T00:20:41.737Z,23.43
2018-07-20T00:23:10.269Z,23.41
2018-07-20T00:25:38.758Z,23.34
2018-07-20T00:28:07.280Z,23.31
2018-07-20T00:30:35.797Z,23.27
2018-07-20T00:33:04.307Z,23.26
2018-07-20T00:35:32.734Z,23.24
2018-07-20T00:38:01.294Z,23.21
2018-07-20T00:40:29.798Z,23.21
2018-07-20T00:42:58.334Z,23.20
2018-07-20T00:45:26.829Z,23.18
2018-07-20T00:47:55.314Z,23.16
2018-07-20T00:50:23.840Z,23.14
2018-07-20T00:52:52.356Z,23.12
2018-07-20T00:55:20.807Z,23.10
2018-07-20T00:57:49.333Z,23.07
2018-07-20T01:00:17.837Z,23.04
2018-07-20T01:02:46.393Z,23.01
2018-07-20T01:05:14.856Z,22.99
2018-07-20T01:07:43.388Z,22.96
2018-07-20T01:10:11.904Z,22.93
2018-07-20T01:12:40.479Z,22.88
2018-07-20T01:15:08.964Z,22.85
2018-07-20T01:17:37.573Z,22.80
2018-07-20T01:20:06.871Z,22.76
2018-07-20T01:22:35.359Z,22.71
2018-07-20T01:25:03.908Z,22.72
2018-07-20T01:27:32.446Z,22.67
2018-07-20T01:30:00.952Z,22.63
2018-07-20T01:32:29.423Z,22.59
2018-07-20T01:34:57.932Z,22.54
2018-07-20T01:37:26.376Z,22.51
2018-07-20T01:39:54.875Z,22.46
2018-07-20T01:42:23.448Z,22.43
2018-07-20T01:44:51.947Z,22.40
2018-07-20T01:47:20.420Z,22.40
2018-07-20T01:49:48.972Z,22.39
2018-07-20T01:52:17.510Z,22.36
2018-07-20T01:54:46.004Z,22.37
2018-07-20T01:57:14.545Z,22.34
2018-07-20T01:59:43.091Z,22.33
2018-07-20T02:02:11.632Z,22.30
2018-07-20T02:04:40.236Z,22.26
2018-07-20T02:07:08.819Z,22.23
2018-07-20T02:09:37.361Z,22.21
2018-07-20T02:12:12.251Z,22.20
2018-07-20T02:14:40.863Z,22.18
2018-07-20T02:17:09.517Z,22.18
2018-07-20T02:19:38.020Z,22.16
2018-07-20T02:22:06.927Z,22.16
2018-07-20T02:24:35.528Z,22.13
2018-07-20T02:27:04.101Z,21.48
2018-07-20T02:29:32.815Z,22.11
2018-07-20T02:32:01.313Z,22.10
2018-07-20T02:34:29.920Z,22.08
2018-07-20T02:36:58.453Z,22.07
2018-07-20T02:39:27.086Z,22.04
2018-07-20T02:41:55.665Z,22.01
2018-07-20T02:44:24.238Z,21.98
2018-07-20T02:46:52.723Z,21.96
2018-07-20T02:49:21.272Z,21.93
2018-07-20T02:51:49.775Z,21.92
2018-07-20T02:54:18.331Z,21.88
2018-07-20T02:56:46.867Z,21.86
2018-07-20T02:59:15.449Z,21.83
2018-07-20T03:01:43.971Z,21.80
2018-07-20T03:04:12.721Z,21.80
2018-07-20T03:06:41.251Z,21.78
2018-07-20T03:09:11.850Z,21.75
2018-07-20T03:11:40.411Z,21.74
2018-07-20T03:14:09.011Z,21.71
2018-07-20T03:16:37.610Z,21.66
2018-07-20T03:19:06.403Z,21.64
2018-07-20T03:21:35.034Z,21.58
2018-07-20T03:24:03.640Z,21.55
2018-07-20T03:26:32.136Z,21.54
2018-07-20T03:29:00.657Z,21.54
2018-07-20T03:31:29.159Z,21.53
2018-07-20T03:33:57.666Z,21.54
2018-07-20T03:36:26.181Z,21.53
2018-07-20T03:38:54.780Z,21.53
2018-07-20T03:41:23.384Z,21.52
2018-07-20T03:43:51.977Z,21.49
2018-07-20T03:46:20.558Z,21.48
2018-07-20T03:48:49.082Z,21.47
2018-07-20T03:51:17.666Z,21.46
2018-07-20T03:53:46.170Z,21.46
2018-07-20T03:56:14.769Z,21.46
2018-07-20T03:58:43.386Z,21.47
2018-07-20T04:01:12.087Z,21.48
2018-07-20T04:03:40.809Z,21.52
2018-07-20T04:06:09.344Z,21.55
2018-07-20T04:08:37.885Z,21.57
2018-07-20T04:11:06.429Z,21.58
2018-07-20T04:13:34.919Z,21.60
2018-07-20T04:16:03.542Z,21.63
2018-07-20T04:18:32.073Z,21.64
2018-07-20T04:21:00.635Z,21.59
2018-07-20T04:23:29.524Z,21.55
2018-07-20T04:25:58.968Z,21.52
2018-07-20T04:28:27.453Z,21.53
2018-07-20T04:30:56.020Z,21.54
2018-07-20T04:33:24.531Z,21.55
2018-07-20T04:35:53.152Z,21.61
2018-07-20T04:38:21.868Z,21.66
2018-07-20T04:40:50.356Z,21.73
2018-07-20T04:43:18.944Z,21.80
2018-07-20T04:45:47.618Z,21.81
2018-07-20T04:48:16.164Z,21.83
2018-07-20T04:50:44.809Z,21.88
2018-07-20T04:53:13.351Z,21.90
2018-07-20T04:55:41.916Z,21.93
2018-07-20T04:58:10.489Z,21.89
2018-07-20T05:00:39.039Z,21.91
2018-07-20T05:03:08.089Z,21.91
2018-07-20T05:05:36.746Z,21.95
2018-07-20T05:08:05.254Z,21.99
2018-07-20T05:10:33.835Z,22.01
2018-07-20T05:13:02.823Z,22.07
2018-07-20T05:15:31.345Z,22.17
2018-07-20T05:17:59.928Z,22.21
2018-07-20T05:20:28.492Z,22.21
2018-07-20T05:22:57.048Z,22.17
2018-07-20T05:25:25.702Z,22.18
2018-07-20T05:27:54.273Z,22.22
2018-07-20T05:30:22.822Z,22.23
2018-07-20T05:32:51.349Z,22.33
2018-07-20T05:35:19.848Z,22.41
2018-07-20T05:37:48.417Z,22.51
2018-07-20T05:40:16.966Z,22.59
2018-07-20T05:42:45.522Z,22.67
2018-07-20T05:45:14.018Z,22.77
2018-07-20T05:47:42.530Z,22.86
2018-07-20T05:50:11.068Z,23.02
2018-07-20T05:52:39.652Z,23.20
2018-07-20T05:55:08.285Z,23.42
2018-07-20T05:57:36.807Z,23.74
2018-07-20T06:00:05.962Z,24.17
2018-07-20T06:02:40.581Z,24.66
2018-07-20T06:05:09.123Z,25.15
2018-07-20T06:07:37.619Z,25.64
2018-07-20T06:10:06.094Z,26.10
2018-07-20T06:12:34.685Z,26.50
2018-07-20T06:15:03.226Z,26.86
2018-07-20T06:17:31.818Z,27.24
2018-07-20T06:20:00.326Z,27.63
2018-07-20T06:22:29.029Z,27.95
2018-07-20T06:24:57.820Z,28.26
2018-07-20T06:27:26.672Z,28.52
2018-07-20T06:29:55.236Z,28.75
2018-07-20T06:32:23.751Z,28.94
2018-07-20T06:34:52.473Z,29.22
2018-07-20T06:37:21.150Z,29.43
2018-07-20T06:39:49.800Z,29.73
2018-07-20T06:42:18.426Z,30.12
2018-07-20T06:44:46.995Z,30.46
2018-07-20T06:47:15.682Z,30.78
2018-07-20T06:49:44.376Z,31.14
2018-07-20T06:52:13.059Z,31.50
2018-07-20T06:54:42.406Z,31.84
2018-07-20T06:57:11.381Z,32.20
2018-07-20T06:59:40.016Z,32.58
2018-07-20T07:02:08.594Z,33.00
2018-07-20T07:04:37.678Z,33.42
2018-07-20T07:07:07.119Z,33.86
2018-07-20T07:09:35.676Z,34.34
2018-07-20T07:12:04.340Z,34.43
2018-07-20T07:14:33.010Z,35.25
2018-07-20T07:17:01.633Z,35.59
2018-07-20T07:19:30.316Z,35.90
2018-07-20T07:21:59.193Z,36.19
2018-07-20T07:24:27.855Z,36.52
2018-07-20T07:26:56.440Z,36.83
2018-07-20T07:29:25.004Z,37.14
2018-07-20T07:31:53.528Z,37.44
2018-07-20T07:34:22.159Z,37.73
2018-07-20T07:36:50.815Z,37.94
2018-07-20T07:39:19.785Z,38.27
2018-07-20T07:41:48.481Z,38.60
2018-07-20T07:44:17.045Z,38.82
2018-07-20T07:46:45.797Z,39.10
2018-07-20T07:49:14.642Z,39.35
2018-07-20T07:51:43.474Z,39.54
2018-07-20T07:54:12.089Z,39.70
2018-07-20T07:56:40.694Z,39.89
2018-07-20T07:59:09.327Z,39.98
2018-07-20T08:01:38.052Z,40.08
2018-07-20T08:04:07.592Z,40.15
2018-07-20T08:06:36.193Z,40.38
2018-07-20T08:09:08.713Z,40.42
2018-07-20T08:11:37.760Z,40.61
2018-07-20T08:14:06.344Z,40.96
2018-07-20T08:16:34.947Z,41.32
2018-07-20T08:19:03.547Z,41.45
2018-07-20T08:21:32.177Z,41.69
2018-07-20T08:24:00.736Z,41.86
2018-07-20T08:26:29.306Z,42.11
2018-07-20T08:28:57.842Z,42.32
2018-07-20T08:31:26.475Z,42.60
2018-07-20T08:33:55.060Z,42.96
2018-07-20T08:36:23.707Z,43.36
2018-07-20T08:38:52.318Z,43.78
2018-07-20T08:41:21.192Z,44.03
2018-07-20T08:43:49.843Z,44.32
2018-07-20T08:46:18.659Z,44.56
2018-07-20T08:48:47.283Z,44.82
2018-07-20T08:51:15.873Z,45.02
2018-07-20T08:53:44.516Z,45.30
2018-07-20T08:56:13.026Z,45.54
2018-07-20T08:58:41.635Z,45.78
2018-07-20T09:01:10.675Z,46.01
2018-07-20T09:03:39.303Z,46.14
2018-07-20T09:06:07.937Z,46.34
2018-07-20T09:08:36.511Z,46.55
2018-07-20T09:11:05.163Z,46.71
2018-07-20T09:13:33.664Z,46.98
2018-07-20T09:16:02.176Z,47.28
2018-07-20T09:18:30.721Z,47.67
2018-07-20T09:20:59.284Z,48.03
2018-07-20T09:23:27.830Z,48.28
2018-07-20T09:25:56.633Z,48.34
2018-07-20T09:28:25.245Z,48.59
2018-07-20T09:30:53.670Z,48.91
2018-07-20T09:33:22.195Z,48.93
2018-07-20T09:35:50.940Z,48.86
2018-07-20T09:38:19.470Z,48.95
2018-07-20T09:40:48.054Z,49.18
2018-07-20T09:43:16.614Z,49.44
2018-07-20T09:45:45.321Z,49.79
2018-07-20T09:48:13.912Z,50.12
2018-07-20T09:50:42.526Z,50.38
2018-07-20T09:53:11.198Z,50.50
2018-07-20T09:55:39.750Z,50.56
2018-07-20T09:58:08.356Z,50.08
2018-07-20T10:00:42.856Z,49.22
2018-07-20T10:03:11.625Z,48.87
2018-07-20T10:05:40.247Z,49.05
2018-07-20T10:08:08.990Z,49.45
2018-07-20T10:10:37.596Z,49.86
2018-07-20T10:13:06.205Z,50.32
2018-07-20T10:15:34.706Z,50.71
2018-07-20T10:18:03.257Z,50.97
2018-07-20T10:20:31.717Z,50.84
2018-07-20T10:23:00.427Z,49.94
2018-07-20T10:25:29.024Z,49.22
2018-07-20T10:27:57.621Z,48.53
2018-07-20T10:30:26.243Z,48.63
2018-07-20T10:32:54.877Z,49.14
2018-07-20T10:35:23.487Z,49.22
2018-07-20T10:37:52.100Z,48.99
2018-07-20T10:40:22.188Z,49.26
2018-07-20T10:42:50.825Z,50.10
2018-07-20T10:45:19.439Z,51.02
2018-07-20T10:47:48.309Z,51.83
2018-07-20T10:50:16.876Z,52.52
2018-07-20T10:52:45.395Z,52.97
2018-07-20T10:55:14.094Z,52.95
2018-07-20T10:57:42.668Z,52.80
2018-07-20T11:00:11.219Z,53.22
2018-07-20T11:02:39.726Z,53.70
2018-07-20T11:05:08.296Z,53.95
2018-07-20T11:07:36.782Z,53.77
2018-07-20T11:10:05.645Z,53.41
2018-07-20T11:12:34.131Z,53.30
2018-07-20T11:15:02.612Z,52.93
2018-07-20T11:17:31.047Z,52.26
2018-07-20T11:19:59.816Z,51.66
2018-07-20T11:22:28.322Z,51.29
2018-07-20T11:24:56.873Z,50.20
2018-07-20T11:27:25.426Z,49.44
2018-07-20T11:29:54.091Z,48.82
2018-07-20T11:32:22.642Z,47.90
2018-07-20T11:34:51.226Z,47.08
2018-07-20T11:37:19.748Z,46.14
2018-07-20T11:39:48.280Z,45.12
2018-07-20T11:42:16.784Z,44.17
2018-07-20T11:44:45.337Z,43.19
2018-07-20T11:47:13.888Z,42.37
2018-07-20T11:49:42.455Z,41.50
2018-07-20T11:52:11.380Z,40.93
2018-07-20T11:54:39.964Z,40.57
2018-07-20T11:57:08.526Z,40.30
2018-07-20T11:59:37.207Z,40.12
2018-07-20T12:02:05.714Z,39.97
2018-07-20T12:04:34.248Z,39.76
2018-07-20T12:07:02.877Z,39.46
2018-07-20T12:09:31.474Z,39.27
2018-07-20T12:12:00.286Z,39.08
2018-07-20T12:14:28.836Z,38.78
2018-07-20T12:16:57.407Z,38.43
2018-07-20T12:19:25.983Z,38.08
2018-07-20T12:21:54.626Z,38.04
2018-07-20T12:24:23.188Z,38.12
2018-07-20T12:26:51.712Z,38.29
2018-07-20T12:29:20.933Z,38.40
2018-07-20T12:31:49.564Z,38.52
2018-07-20T12:34:18.225Z,38.61
2018-07-20T12:36:46.786Z,38.55
2018-07-20T12:39:15.361Z,38.59
2018-07-20T12:41:43.877Z,38.59
2018-07-20T12:44:12.410Z,38.60
2018-07-20T12:46:40.971Z,38.57
2018-07-20T12:49:09.773Z,38.57
2018-07-20T12:51:38.543Z,38.51
2018-07-20T12:54:07.164Z,38.46
2018-07-20T12:56:35.762Z,38.46
2018-07-20T12:59:04.342Z,38.39
2018-07-20T13:01:33.294Z,38.32
2018-07-20T13:04:04.858Z,38.30
2018-07-20T13:06:33.681Z,38.27
2018-07-20T13:09:02.347Z,38.24
2018-07-20T13:11:30.957Z,38.24
2018-07-20T13:13:59.714Z,38.26
2018-07-20T13:16:28.308Z,38.27
2018-07-20T13:18:56.828Z,38.22
2018-07-20T13:21:25.455Z,38.19
2018-07-20T13:23:54.189Z,38.19
2018-07-20T13:26:22.863Z,38.05
2018-07-20T13:28:51.364Z,37.98
2018-07-20T13:31:20.194Z,37.95
2018-07-20T13:33:49.224Z,37.34
2018-07-20T13:36:17.759Z,38.01
2018-07-20T13:38:47.281Z,38.02
2018-07-20T13:41:15.854Z,38.02
2018-07-20T13:43:44.330Z,37.99
2018-07-20T13:46:12.944Z,37.97
2018-07-20T13:48:41.483Z,37.94
2018-07-20T13:51:10.139Z,37.92
2018-07-20T13:53:38.824Z,37.91
2018-07-20T13:56:07.369Z,37.86
2018-07-20T13:58:35.896Z,37.85
2018-07-20T14:01:04.451Z,37.61
2018-07-20T14:03:32.916Z,37.41
2018-07-20T14:06:01.527Z,37.16
2018-07-20T14:08:30.068Z,36.87
2018-07-20T14:10:58.577Z,36.69
2018-07-20T14:13:27.023Z,36.63
2018-07-20T14:15:55.674Z,36.66
2018-07-20T14:18:24.249Z,36.74
2018-07-20T14:20:52.835Z,36.88
2018-07-20T14:23:21.443Z,36.99
2018-07-20T14:25:50.029Z,37.10
2018-07-20T14:28:18.563Z,37.28
2018-07-20T14:30:47.189Z,37.43
2018-07-20T14:33:15.782Z,37.59
2018-07-20T14:35:44.638Z,37.68
2018-07-20T14:38:13.412Z,37.70
2018-07-20T14:40:42.023Z,37.78
2018-07-20T14:43:10.950Z,37.86
2018-07-20T14:45:40.319Z,37.96
2018-07-20T14:48:08.896Z,38.01
2018-07-20T14:50:37.469Z,38.06
2018-07-20T14:53:06.042Z,38.09
2018-07-20T14:55:34.691Z,38.13
2018-07-20T14:58:03.326Z,38.09
2018-07-20T15:00:32.164Z,38.02
2018-07-20T15:03:00.797Z,37.97
2018-07-20T15:05:29.586Z,37.92
2018-07-20T15:07:58.186Z,37.87
2018-07-20T15:10:26.805Z,37.78
2018-07-20T15:12:55.354Z,37.68
2018-07-20T15:15:23.876Z,37.60
2018-07-20T15:17:52.558Z,37.51
2018-07-20T15:20:21.146Z,37.48
2018-07-20T15:22:49.731Z,37.41
2018-07-20T15:25:18.272Z,37.34
2018-07-20T15:27:46.744Z,37.28
2018-07-20T15:30:15.290Z,37.16
2018-07-20T15:32:43.862Z,37.05
2018-07-20T15:35:12.397Z,36.93
2018-07-20T15:37:41.018Z,36.86
2018-07-20T15:40:09.599Z,36.82
2018-07-20T15:42:38.075Z,36.79
2018-07-20T15:45:06.834Z,36.76
2018-07-20T15:47:35.532Z,36.73
2018-07-20T15:50:04.166Z,36.66
2018-07-20T15:55:01.304Z,36.58
2018-07-20T15:57:30.156Z,36.50
2018-07-20T15:59:58.971Z,36.45
2018-07-20T16:02:27.389Z,36.41
2018-07-20T16:04:56.118Z,36.38
2018-07-20T16:07:24.641Z,36.37
2018-07-20T16:09:53.169Z,36.34
2018-07-20T16:12:21.803Z,35.70
2018-07-20T16:14:50.377Z,36.29
2018-07-20T16:17:19.037Z,36.23
2018-07-20T16:19:47.692Z,36.17
2018-07-20T16:22:16.206Z,36.13
2018-07-20T16:24:44.802Z,36.09
2018-07-20T16:27:13.341Z,36.03
2018-07-20T16:29:41.851Z,35.95
2018-07-20T16:32:10.476Z,35.83
2018-07-20T16:34:40.128Z,35.71
2018-07-20T16:37:08.922Z,35.60
2018-07-20T16:39:39.800Z,35.52
2018-07-20T16:42:09.265Z,35.45
2018-07-20T16:44:38.190Z,35.38
2018-07-20T16:47:07.178Z,35.31
2018-07-20T16:49:35.871Z,35.25
2018-07-20T16:52:04.777Z,35.21
2018-07-20T16:54:33.305Z,35.20
2018-07-20T16:57:01.857Z,35.21
2018-07-20T16:59:30.427Z,35.20
2018-07-20T17:01:59.002Z,35.19
2018-07-20T17:04:27.591Z,35.21
2018-07-20T17:06:56.375Z,35.16
2018-07-20T17:09:25.002Z,35.17
2018-07-20T17:11:53.675Z,35.14
2018-07-20T17:14:22.291Z,35.11
2018-07-20T17:16:51.156Z,35.10
2018-07-20T17:19:19.708Z,35.10
2018-07-20T17:21:48.453Z,35.09
2018-07-20T17:24:17.024Z,35.08
2018-07-20T17:26:45.593Z,35.04
2018-07-20T17:29:14.192Z,34.99
2018-07-20T17:31:43.491Z,34.94
2018-07-20T17:34:12.036Z,34.86
2018-07-20T17:36:40.982Z,34.73
2018-07-20T17:39:11.041Z,34.62
2018-07-20T17:41:41.759Z,34.49
2018-07-20T17:44:10.950Z,34.38
2018-07-20T17:46:39.492Z,34.29
2018-07-20T17:49:09.355Z,34.17
2018-07-20T17:51:38.173Z,34.06
2018-07-20T17:54:06.797Z,33.95
2018-07-20T17:56:35.815Z,33.87
2018-07-20T17:59:04.608Z,33.80
2018-07-20T18:01:33.256Z,33.71
2018-07-20T18:04:02.165Z,33.62
2018-07-20T18:06:31.040Z,33.54
2018-07-20T18:08:59.641Z,33.45
2018-07-20T18:11:28.640Z,33.35
2018-07-20T18:13:57.264Z,33.30
2018-07-20T18:16:25.787Z,33.21
2018-07-20T18:18:54.361Z,33.15
2018-07-20T18:21:22.993Z,33.05
2018-07-20T18:23:51.562Z,32.98
2018-07-20T18:26:20.072Z,32.89
2018-07-20T18:28:48.516Z,32.82
2018-07-20T18:31:17.151Z,32.73
2018-07-20T18:33:46.145Z,32.69
2018-07-20T18:36:14.991Z,32.65
2018-07-20T18:38:43.996Z,32.60
2018-07-20T18:41:12.685Z,32.56
2018-07-20T18:43:41.431Z,32.50
2018-07-20T18:46:10.085Z,32.45
2018-07-20T18:48:38.771Z,32.37
2018-07-20T18:51:08.417Z,32.32
2018-07-20T18:53:37.176Z,32.28
2018-07-20T18:56:05.826Z,32.18
2018-07-20T18:58:34.467Z,32.17
2018-07-20T19:01:03.329Z,32.12
2018-07-20T19:03:32.008Z,32.07
2018-07-20T19:06:00.705Z,32.03
2018-07-20T19:08:29.603Z,31.98
2018-07-20T19:10:58.372Z,31.95
2018-07-20T19:13:27.332Z,31.88
2018-07-20T19:15:56.314Z,31.83
2018-07-20T19:18:25.800Z,31.76
2018-07-20T19:20:54.747Z,31.71
2018-07-20T19:23:23.361Z,31.66
2018-07-20T19:25:51.937Z,31.61
2018-07-20T19:28:20.474Z,31.56
2018-07-20T19:30:49.035Z,31.52
2018-07-20T19:33:17.678Z,31.45
2018-07-20T19:35:46.448Z,31.39
2018-07-20T19:38:15.192Z,31.33
2018-07-20T19:40:43.779Z,31.29
2018-07-20T19:43:12.456Z,31.22
2018-07-20T19:45:41.461Z,31.15
2018-07-20T19:48:10.789Z,31.09
2018-07-20T19:50:39.816Z,31.03
2018-07-20T19:53:08.993Z,30.97
2018-07-20T19:55:38.461Z,30.90
2018-07-20T19:58:07.815Z,30.83
2018-07-20T20:00:36.598Z,30.76
2018-07-20T20:03:06.233Z,30.68
2018-07-20T20:05:34.865Z,30.60
2018-07-20T20:08:03.598Z,30.50
2018-07-20T20:10:32.445Z,30.38
2018-07-20T20:13:01.187Z,30.28
2018-07-20T20:15:30.050Z,30.18
2018-07-20T20:17:58.853Z,30.06
2018-07-20T20:20:27.541Z,29.94
2018-07-20T20:22:56.127Z,29.84
2018-07-20T20:25:24.693Z,29.71
2018-07-20T20:27:53.413Z,29.66
2018-07-20T20:30:22.068Z,29.59
2018-07-20T20:32:50.612Z,29.54
2018-07-20T20:35:19.271Z,29.49
2018-07-20T20:37:48.004Z,29.46
2018-07-20T20:40:16.553Z,29.42
2018-07-20T20:42:45.116Z,29.38
2018-07-20T20:45:13.765Z,29.30
2018-07-20T20:47:42.349Z,29.24
2018-07-20T20:50:10.922Z,29.20
2018-07-20T20:52:39.505Z,29.13
2018-07-20T20:55:08.265Z,29.05
2018-07-20T20:57:36.959Z,28.97
2018-07-20T21:00:06.255Z,28.86
2018-07-20T21:02:34.911Z,28.81
2018-07-20T21:05:03.738Z,28.77
2018-07-20T21:07:32.315Z,28.72
2018-07-20T21:10:00.938Z,28.64
2018-07-20T21:12:29.528Z,28.60
2018-07-20T21:14:58.144Z,28.53
2018-07-20T21:17:26.729Z,28.48
2018-07-20T21:19:55.361Z,28.43
2018-07-20T21:22:23.884Z,28.40
2018-07-20T21:24:52.468Z,28.37
2018-07-20T21:27:21.039Z,28.33
2018-07-20T21:29:49.632Z,28.30
2018-07-20T21:32:18.249Z,28.26
2018-07-20T21:34:46.861Z,28.26
2018-07-20T21:37:15.373Z,28.23
2018-07-20T21:39:44.027Z,28.22
2018-07-20T21:42:12.544Z,28.20
2018-07-20T21:44:41.153Z,28.18
2018-07-20T21:47:09.714Z,28.15
2018-07-20T21:49:38.334Z,28.14
2018-07-20T21:52:06.827Z,28.12
2018-07-20T21:54:35.343Z,28.11
2018-07-20T21:57:03.867Z,28.06
2018-07-20T21:59:32.585Z,28.03
2018-07-20T22:02:01.222Z,28.02
2018-07-20T22:04:29.803Z,27.98
2018-07-20T22:06:58.348Z,27.98
2018-07-20T22:09:26.864Z,27.96
2018-07-20T22:11:55.358Z,27.92
2018-07-20T22:14:23.842Z,27.91
2018-07-20T22:16:52.374Z,27.89
2018-07-20T22:19:20.888Z,27.82
2018-07-20T22:21:49.419Z,27.76
2018-07-20T22:24:18.096Z,27.71
2018-07-20T22:26:46.654Z,27.68
2018-07-20T22:29:15.190Z,27.61
2018-07-20T22:31:43.736Z,27.57
2018-07-20T22:34:12.315Z,27.49
2018-07-20T22:36:40.952Z,27.44
2018-07-20T22:39:11.388Z,27.40
2018-07-20T22:41:39.932Z,27.39
2018-07-20T22:44:08.414Z,27.39
2018-07-20T22:46:36.980Z,27.40
2018-07-20T22:49:05.631Z,27.41
2018-07-20T22:51:34.283Z,27.43
2018-07-20T22:54:02.894Z,27.43
2018-07-20T22:56:31.527Z,27.43
2018-07-20T22:59:00.137Z,27.44
2018-07-20T23:01:28.742Z,27.43
2018-07-20T23:03:57.291Z,27.44
2018-07-20T23:06:25.900Z,27.44
2018-07-20T23:08:54.403Z,27.44
2018-07-20T23:11:22.996Z,27.42
2018-07-20T23:13:51.550Z,27.41
2018-07-20T23:16:20.146Z,27.41
2018-07-20T23:18:48.672Z,27.41
2018-07-20T23:21:17.216Z,27.38
2018-07-20T23:23:45.890Z,27.37
2018-07-20T23:26:14.531Z,27.34
2018-07-20T23:28:43.051Z,27.30
2018-07-20T23:31:11.640Z,27.26
2018-07-20T23:33:40.203Z,27.20
2018-07-20T23:36:08.828Z,27.12
2018-07-20T23:38:37.448Z,27.06
2018-07-20T23:41:06.203Z,26.98
2018-07-20T23:43:34.719Z,26.92
2018-07-20T23:46:03.316Z,26.85
2018-07-20T23:48:31.875Z,26.83
2018-07-20T23:51:00.537Z,26.82
2018-07-20T23:53:29.104Z,26.79
2018-07-20T23:55:57.929Z,26.81
2018-07-20T23:58:26.620Z,26.85
